createdAt,value
2022-12-11T00:01:11.995Z,100150.84
2022-12-11T00:05:13.550Z,100151.00
2022-12-11T00:09:15.113Z,100149.13
2022-12-11T00:13:16.836Z,100154.38
2022-12-11T00:17:18.395Z,100163.66
2022-12-11T00:21:19.948Z,100161.91
2022-12-11T00:25:21.488Z,100161.88
2022-12-11T00:29:23.043Z,100157.59
2022-12-11T00:33:26.785Z,100160.69
2022-12-11T00:37:28.479Z,100157.13
2022-12-11T00:41:30.206Z,100150.59
2022-12-11T00:45:35.507Z,100154.13
2022-12-11T00:49:37.092Z,100147.03
2022-12-11T00:53:39.489Z,100140.25
2022-12-11T00:57:41.012Z,100149.22
2022-12-11T01:01:42.635Z,100153.72
2022-12-11T01:05:54.757Z,100153.19
2022-12-11T01:10:14.660Z,100154.06
2022-12-11T01:14:16.232Z,100146.16
2022-12-11T01:18:17.876Z,100150.66
2022-12-11T01:22:19.413Z,100151.41
2022-12-11T01:26:21.490Z,100154.63
2022-12-11T01:30:25.001Z,100139.16
2022-12-11T01:34:30.079Z,100133.81
2022-12-11T01:38:31.660Z,100138.41
2022-12-11T01:42:33.908Z,100137.09
2022-12-11T01:46:36.643Z,100135.53
2022-12-11T01:50:45.295Z,100141.16
2022-12-11T01:54:48.074Z,100139.81
2022-12-11T01:58:56.224Z,100138.94
2022-12-11T02:02:57.858Z,100150.66
2022-12-11T02:06:59.387Z,100143.88
2022-12-11T02:11:15.903Z,100136.78
2022-12-11T02:15:17.405Z,100129.88
2022-12-11T02:19:39.448Z,100149.00
2022-12-11T02:23:51.472Z,100169.94
2022-12-11T02:28:11.401Z,100181.84
2022-12-11T02:32:37.921Z,100189.03
2022-12-11T02:36:46.716Z,100182.91
2022-12-11T02:40:50.052Z,100181.63
2022-12-11T02:44:53.055Z,100185.81
2022-12-11T02:48:56.705Z,100176.97
2022-12-11T02:52:59.643Z,100167.13
2022-12-11T02:57:07.258Z,100162.31
2022-12-11T03:01:08.839Z,100158.94
2022-12-11T03:05:11.859Z,100148.59
2022-12-11T03:09:13.670Z,100147.50
2022-12-11T03:13:19.831Z,100147.16
2022-12-11T03:17:24.046Z,100145.72
2022-12-11T03:21:38.424Z,100138.16
2022-12-11T03:25:45.623Z,100149.66
2022-12-11T03:30:05.461Z,100141.56
2022-12-11T03:34:15.967Z,100154.91
2022-12-11T03:38:26.370Z,100151.19
2022-12-11T03:42:28.112Z,100156.66
2022-12-11T03:46:36.618Z,100163.09
2022-12-11T03:50:39.882Z,100154.13
2022-12-11T03:54:44.803Z,100153.63
2022-12-11T03:58:46.341Z,100156.22
2022-12-11T04:03:11.339Z,100165.84
2022-12-11T04:07:14.763Z,100154.50
2022-12-11T04:11:34.415Z,100164.34
2022-12-11T04:15:37.183Z,100171.78
2022-12-11T04:19:57.767Z,100170.56
2022-12-11T04:24:25.229Z,100166.31
2022-12-11T04:28:26.742Z,100169.84
2022-12-11T04:32:28.370Z,100154.16
2022-12-11T04:36:29.879Z,100152.84
2022-12-11T04:40:31.534Z,100148.91
2022-12-11T04:44:34.059Z,100142.13
2022-12-11T04:48:36.644Z,100144.66
2022-12-11T04:52:38.177Z,100148.03
2022-12-11T04:56:39.659Z,100148.03
2022-12-11T05:00:42.028Z,100146.28
2022-12-11T05:04:43.588Z,100148.13
2022-12-11T05:08:45.518Z,100140.28
2022-12-11T05:12:47.082Z,100134.13
2022-12-11T05:16:48.839Z,100144.31
2022-12-11T05:21:02.098Z,100134.22
2022-12-11T05:25:04.426Z,100130.97
2022-12-11T05:29:05.989Z,100135.44
2022-12-11T05:33:07.524Z,100134.88
2022-12-11T05:37:09.317Z,100127.41
2022-12-11T05:41:13.667Z,100130.03
2022-12-11T05:45:15.296Z,100132.97
2022-12-11T05:49:19.887Z,100122.13
2022-12-11T05:53:21.684Z,100121.59
2022-12-11T05:57:23.198Z,100125.88
2022-12-11T06:01:37.787Z,100128.25
2022-12-11T06:05:40.324Z,100124.66
2022-12-11T06:09:41.875Z,100128.69
2022-12-11T06:13:43.410Z,100121.56
2022-12-11T06:17:44.914Z,100117.09
2022-12-11T06:21:48.735Z,100119.16
2022-12-11T06:25:50.545Z,100124.06
2022-12-11T06:29:52.167Z,100122.16
2022-12-11T06:33:54.207Z,100116.69
2022-12-11T06:37:56.055Z,100121.75
2022-12-11T06:41:57.611Z,100115.63
2022-12-11T06:46:03.830Z,100112.78
2022-12-11T06:50:06.056Z,100112.44
2022-12-11T06:54:07.584Z,100109.69
2022-12-11T06:58:10.627Z,100113.09
2022-12-11T07:02:14.571Z,100104.56
2022-12-11T07:06:16.413Z,100099.63
2022-12-11T07:10:18.050Z,100103.03
2022-12-11T07:14:20.611Z,100105.66
2022-12-11T07:18:22.180Z,100105.66
2022-12-11T07:22:23.883Z,100106.53
2022-12-11T07:26:25.646Z,100120.00
2022-12-11T07:30:27.170Z,100109.94
2022-12-11T07:34:28.717Z,100118.34
2022-12-11T07:38:30.316Z,100119.72
2022-12-11T07:42:31.844Z,100126.38
2022-12-11T07:46:34.035Z,100129.91
2022-12-11T07:50:39.827Z,100126.84
2022-12-11T07:54:41.641Z,100131.47
2022-12-11T07:58:43.947Z,100126.69
2022-12-11T08:02:45.469Z,100124.28
2022-12-11T08:06:47.694Z,100122.13
2022-12-11T08:10:49.231Z,100132.41
2022-12-11T08:14:50.800Z,100133.72
2022-12-11T08:18:52.760Z,100123.50
2022-12-11T08:22:58.942Z,100125.06
2022-12-11T08:27:00.911Z,100126.16
2022-12-11T08:31:07.693Z,100130.34
2022-12-11T08:35:09.889Z,100117.88
2022-12-11T08:39:11.672Z,100129.69
2022-12-11T08:43:13.516Z,100126.69
2022-12-11T08:47:15.480Z,100138.41
2022-12-11T08:51:20.760Z,100130.66
2022-12-11T08:55:22.363Z,100127.03
2022-12-11T08:59:25.514Z,100128.19
2022-12-11T09:03:27.080Z,100121.06
2022-12-11T09:07:28.618Z,100116.91
2022-12-11T09:11:33.063Z,100113.34
2022-12-11T09:15:34.745Z,100112.34
2022-12-11T09:19:36.391Z,100116.56
2022-12-11T09:23:38.093Z,100110.72
2022-12-11T09:27:39.635Z,100113.69
2022-12-11T09:31:41.995Z,100112.84
2022-12-11T09:35:44.032Z,100115.41
2022-12-11T09:39:45.592Z,100101.88
2022-12-11T09:43:58.939Z,100105.00
2022-12-11T09:48:01.038Z,100097.91
2022-12-11T09:52:17.588Z,100095.16
2022-12-11T09:56:27.684Z,100085.31
2022-12-11T10:00:51.834Z,100080.44
2022-12-11T10:04:59.129Z,100072.59
2022-12-11T10:09:18.769Z,100084.13
2022-12-11T10:14:04.529Z,100077.16
2022-12-11T10:18:12.536Z,100073.47
2022-12-11T10:22:24.093Z,100066.66
2022-12-11T10:26:27.828Z,100081.06
2022-12-11T10:30:36.978Z,100066.97
2022-12-11T10:34:44.130Z,100067.25
2022-12-11T10:38:46.827Z,100061.22
2022-12-11T10:42:54.934Z,100061.41
2022-12-11T10:47:18.327Z,100062.50
2022-12-11T10:51:22.962Z,100051.63
2022-12-11T10:55:45.574Z,100046.34
2022-12-11T10:59:50.214Z,100035.53
2022-12-11T11:04:06.584Z,100027.72
2022-12-11T11:08:13.418Z,100023.44
2022-12-11T11:12:27.073Z,100022.44
2022-12-11T11:16:29.257Z,100016.69
2022-12-11T11:20:32.340Z,100020.97
2022-12-11T11:24:41.142Z,100017.84
2022-12-11T11:28:48.682Z,100006.69
2022-12-11T11:32:52.982Z,100008.34
2022-12-11T11:37:00.870Z,100006.06
2022-12-11T11:41:24.356Z,99997.72
2022-12-11T11:45:36.056Z,99989.69
2022-12-11T11:49:50.748Z,99990.88
2022-12-11T11:53:56.330Z,99986.88
2022-12-11T11:58:05.139Z,99986.00
2022-12-11T12:02:15.950Z,99989.78
2022-12-11T12:06:29.495Z,99991.47
2022-12-11T12:11:08.023Z,99996.72
2022-12-11T12:15:39.798Z,99997.22
2022-12-11T12:19:51.601Z,99990.63
2022-12-11T12:24:08.945Z,99986.88
2022-12-11T12:28:41.781Z,99992.69
2022-12-11T12:33:12.097Z,99994.19
2022-12-11T12:37:30.155Z,99987.13
2022-12-11T12:41:49.336Z,99989.28
2022-12-11T12:46:02.691Z,99982.75
2022-12-11T12:50:12.163Z,99971.75
2022-12-11T12:54:17.739Z,99972.00
2022-12-11T12:58:28.108Z,99964.44
2022-12-11T13:02:30.359Z,99968.34
2022-12-11T13:06:40.039Z,99964.34
2022-12-11T13:10:43.083Z,99961.81
2022-12-11T13:14:44.619Z,99950.13
2022-12-11T13:18:48.184Z,99953.72
2022-12-11T13:22:54.386Z,99961.91
2022-12-11T13:26:56.292Z,99966.72
2022-12-11T13:31:02.584Z,99975.34
2022-12-11T13:35:06.173Z,99968.38
2022-12-11T13:39:23.980Z,99969.88
2022-12-11T13:43:30.699Z,99967.22
2022-12-11T13:47:34.543Z,99976.47
2022-12-11T13:51:37.073Z,99981.53
2022-12-11T13:55:38.618Z,99979.78
2022-12-11T13:59:49.072Z,99979.53
2022-12-11T14:03:56.972Z,99980.91
2022-12-11T14:08:06.297Z,99993.44
2022-12-11T14:12:17.355Z,99989.97
2022-12-11T14:16:21.897Z,99994.03
2022-12-11T14:20:34.246Z,99996.56
2022-12-11T14:24:35.921Z,99995.59
2022-12-11T14:28:41.516Z,100005.16
2022-12-11T14:32:44.873Z,100005.56
2022-12-11T14:36:47.902Z,100001.88
2022-12-11T14:40:54.503Z,100007.72
2022-12-11T14:45:02.090Z,100009.22
2022-12-11T14:49:08.971Z,100009.03
2022-12-11T14:53:16.152Z,100019.03
2022-12-11T14:57:24.856Z,100024.19
2022-12-11T15:01:32.837Z,100023.88
2022-12-11T15:05:40.605Z,100021.88
2022-12-11T15:09:46.701Z,100021.69
2022-12-11T15:13:53.081Z,100027.22
2022-12-11T15:17:54.723Z,100023.53
2022-12-11T15:22:05.519Z,100030.56
2022-12-11T15:26:07.475Z,100034.06
2022-12-11T15:30:16.318Z,100036.28
2022-12-11T15:34:23.128Z,100035.97
2022-12-11T15:38:33.845Z,100033.25
2022-12-11T15:42:40.781Z,100033.94
2022-12-11T15:46:42.343Z,100041.50
2022-12-11T15:50:43.949Z,100045.69
2022-12-11T15:54:45.548Z,100042.97
2022-12-11T15:58:48.739Z,100043.84
2022-12-11T16:02:51.557Z,100054.63
2022-12-11T16:06:53.261Z,100046.78
2022-12-11T16:10:55.810Z,100052.88
2022-12-11T16:14:57.407Z,100047.16
2022-12-11T16:18:58.965Z,100046.47
2022-12-11T16:23:01.011Z,100042.38
2022-12-11T16:27:03.684Z,100046.38
2022-12-11T16:31:11.111Z,100046.97
2022-12-11T16:35:13.180Z,100039.78
2022-12-11T16:39:15.199Z,100036.94
2022-12-11T16:43:16.738Z,100040.22
2022-12-11T16:47:18.262Z,100042.19
2022-12-11T16:51:19.940Z,100033.84
2022-12-11T16:55:22.201Z,100027.75
2022-12-11T16:59:23.801Z,100020.81
2022-12-11T17:03:25.350Z,100025.44
2022-12-11T17:07:27.085Z,100029.22
2022-12-11T17:11:28.877Z,100039.81
2022-12-11T17:15:30.565Z,100032.09
2022-12-11T17:19:32.173Z,100029.56
2022-12-11T17:23:34.226Z,100026.00
2022-12-11T17:27:35.895Z,100014.44
2022-12-11T17:31:38.164Z,100024.81
2022-12-11T17:35:39.835Z,100019.19
2022-12-11T17:39:41.395Z,100025.31
2022-12-11T17:43:43.440Z,100029.88
2022-12-11T17:47:44.958Z,100034.81
2022-12-11T17:51:47.841Z,100024.72
2022-12-11T17:55:51.686Z,100024.81
2022-12-11T17:59:54.520Z,100024.81
2022-12-11T18:03:56.810Z,100009.75
2022-12-11T18:07:58.577Z,100022.47
2022-12-11T18:12:00.258Z,100011.47
2022-12-11T18:16:04.983Z,100016.53
2022-12-11T18:20:07.107Z,100010.72
2022-12-11T18:24:09.854Z,100020.91
2022-12-11T18:28:11.549Z,100029.28
2022-12-11T18:32:13.163Z,100020.91
2022-12-11T18:36:17.419Z,100017.63
2022-12-11T18:40:19.018Z,100012.66
2022-12-11T18:44:22.631Z,100016.03
2022-12-11T18:48:24.238Z,100017.81
2022-12-11T18:52:25.830Z,100012.28
2022-12-11T18:56:27.383Z,100013.16
2022-12-11T19:00:29.057Z,100018.91
2022-12-11T19:04:30.783Z,100025.69
2022-12-11T19:08:33.360Z,100023.47
2022-12-11T19:12:36.060Z,100033.84
2022-12-11T19:16:40.531Z,100024.91
2022-12-11T19:20:55.652Z,100025.88
2022-12-11T19:25:06.398Z,100026.84
2022-12-11T19:29:08.613Z,100020.91
2022-12-11T19:33:10.393Z,100026.84
2022-12-11T19:37:11.939Z,100024.22
2022-12-11T19:41:26.912Z,100026.94
2022-12-11T19:45:28.544Z,100020.91
2022-12-11T19:49:30.271Z,100023.63
2022-12-11T19:53:31.868Z,100027.81
2022-12-11T19:57:33.703Z,100026.94
2022-12-11T20:01:36.993Z,100019.28
2022-12-11T20:05:39.257Z,100030.31
2022-12-11T20:09:40.823Z,100020.22
2022-12-11T20:13:43.134Z,100022.66
2022-12-11T20:17:44.869Z,100026.75
2022-12-11T20:21:46.508Z,100032.47
2022-12-11T20:25:48.039Z,100029.75
2022-12-11T20:29:49.625Z,100032.19
2022-12-11T20:33:52.723Z,100039.75
2022-12-11T20:37:54.353Z,100039.00
2022-12-11T20:41:55.977Z,100036.72
2022-12-11T20:45:57.635Z,100035.00
2022-12-11T20:49:59.335Z,100027.25
2022-12-11T20:54:01.224Z,100030.44
2022-12-11T20:58:02.800Z,100030.94
2022-12-11T21:02:05.305Z,100024.22
2022-12-11T21:06:07.001Z,100030.94
2022-12-11T21:10:09.233Z,100029.97
2022-12-11T21:14:10.904Z,100036.59
2022-12-11T21:18:12.442Z,100031.72
2022-12-11T21:22:13.984Z,100036.97
2022-12-11T21:26:15.732Z,100022.78
2022-12-11T21:30:18.684Z,100028.53
2022-12-11T21:34:25.258Z,100030.94
2022-12-11T21:38:27.794Z,100034.06
2022-12-11T21:42:29.506Z,100039.69
2022-12-11T21:46:31.279Z,100052.28
2022-12-11T21:50:34.332Z,100048.31
2022-12-11T21:54:35.879Z,100051.91
2022-12-11T21:58:38.954Z,100053.94
2022-12-11T22:02:41.210Z,100046.56
2022-12-11T22:06:43.805Z,100047.44
2022-12-11T22:10:45.418Z,100058.53
2022-12-11T22:14:47.045Z,100053.66
2022-12-11T22:18:48.854Z,100046.94
2022-12-11T22:22:50.423Z,100052.19
2022-12-11T22:26:52.059Z,100053.84
2022-12-11T22:30:53.600Z,100052.88
2022-12-11T22:34:57.690Z,100060.56
2022-12-11T22:39:00.040Z,100064.72
2022-12-11T22:43:01.588Z,100060.66
2022-12-11T22:47:03.209Z,100058.22
2022-12-11T22:51:07.303Z,100060.06
2022-12-11T22:55:09.094Z,100063.38
2022-12-11T22:59:10.889Z,100057.03
2022-12-11T23:03:12.465Z,100060.84
2022-12-11T23:07:14.162Z,100068.63
2022-12-11T23:11:23.004Z,100056.28
2022-12-11T23:15:24.573Z,100064.91
2022-12-11T23:19:26.984Z,100069.38
2022-12-11T23:23:28.623Z,100066.38
2022-12-11T23:27:30.118Z,100069.97
2022-12-11T23:31:33.695Z,100070.94
2022-12-11T23:35:35.276Z,100068.63
2022-12-11T23:39:37.178Z,100067.16
2022-12-11T23:43:39.103Z,100074.03
2022-12-11T23:47:40.618Z,100074.91
2022-12-11T23:51:42.237Z,100075.03
2022-12-11T23:55:45.174Z,100075.09
2022-12-11T23:59:46.701Z,100080.16
